createdAt,value
2023-02-20T00:00:42.178Z,8.67
2023-02-20T00:03:16.994Z,8.90
2023-02-20T00:05:49.059Z,8.40
2023-02-20T00:08:21.166Z,9.17
2023-02-20T00:10:53.360Z,9.27
2023-02-20T00:13:25.352Z,9.37
2023-02-20T00:15:57.289Z,9.00
2023-02-20T00:18:29.296Z,9.20
2023-02-20T00:21:01.252Z,9.13
2023-02-20T00:23:34.249Z,8.97
2023-02-20T00:26:14.577Z,8.57
2023-02-20T00:28:46.897Z,9.00
2023-02-20T00:31:19.932Z,9.60
2023-02-20T00:33:51.964Z,9.73
2023-02-20T00:36:23.910Z,9.03
2023-02-20T00:38:55.882Z,9.27
2023-02-20T00:41:27.868Z,9.43
2023-02-20T00:43:59.803Z,10.10
2023-02-20T00:46:32.417Z,10.20
2023-02-20T00:49:04.597Z,9.63
2023-02-20T00:51:36.580Z,10.63
2023-02-20T00:54:08.648Z,9.60
2023-02-20T00:56:40.962Z,9.87
2023-02-20T00:59:13.669Z,10.07
2023-02-20T01:01:45.782Z,10.00
2023-02-20T01:04:17.783Z,10.03
2023-02-20T01:06:49.742Z,9.97
2023-02-20T01:09:21.888Z,9.97
2023-02-20T01:11:54.925Z,10.43
2023-02-20T01:14:27.088Z,9.87
2023-02-20T01:16:59.082Z,10.17
2023-02-20T01:19:31.270Z,9.87
2023-02-20T01:22:06.421Z,10.40
2023-02-20T01:24:38.363Z,10.90
2023-02-20T01:27:10.827Z,10.47
2023-02-20T01:29:43.269Z,10.37
2023-02-20T01:32:15.249Z,9.53
2023-02-20T01:34:47.229Z,10.53
2023-02-20T01:37:19.829Z,9.77
2023-02-20T01:39:52.403Z,10.10
2023-02-20T01:42:29.911Z,10.53
2023-02-20T01:45:22.928Z,9.97
2023-02-20T01:47:58.233Z,10.27
2023-02-20T01:50:38.431Z,10.63
2023-02-20T01:53:20.150Z,10.80
2023-02-20T01:55:59.016Z,9.97
2023-02-20T01:58:50.440Z,10.53
2023-02-20T02:01:22.506Z,10.17
2023-02-20T02:04:02.557Z,10.53
2023-02-20T02:06:40.955Z,10.07
2023-02-20T02:09:28.589Z,10.27
2023-02-20T02:12:00.747Z,11.70
2023-02-20T02:14:32.811Z,10.77
2023-02-20T02:17:22.714Z,10.87
2023-02-20T02:20:18.785Z,11.47
2023-02-20T02:23:27.056Z,11.10
2023-02-20T02:26:23.812Z,10.87
2023-02-20T02:29:49.749Z,11.07
2023-02-20T02:32:46.634Z,11.97
2023-02-20T02:35:39.449Z,12.40
2023-02-20T02:38:45.340Z,12.87
2023-02-20T02:41:53.718Z,13.07
2023-02-20T02:44:42.009Z,13.03
2023-02-20T02:47:25.865Z,13.57
2023-02-20T02:50:23.684Z,14.57
2023-02-20T02:52:57.451Z,15.30
2023-02-20T02:55:35.201Z,14.67
2023-02-20T02:58:07.942Z,16.30
2023-02-20T03:00:52.856Z,16.77
2023-02-20T03:03:28.952Z,16.13
2023-02-20T03:06:15.206Z,16.30
2023-02-20T03:08:57.840Z,16.57
2023-02-20T03:11:34.639Z,17.63
2023-02-20T03:14:38.636Z,17.97
2023-02-20T03:17:35.999Z,17.13
2023-02-20T03:20:19.440Z,17.80
2023-02-20T03:23:00.308Z,16.93
2023-02-20T03:25:40.385Z,17.30
2023-02-20T03:28:19.668Z,17.63
2023-02-20T03:31:39.118Z,17.43
2023-02-20T03:34:39.918Z,16.43
2023-02-20T03:37:39.395Z,17.23
2023-02-20T03:40:35.252Z,17.43
2023-02-20T03:43:28.006Z,17.27
2023-02-20T03:46:11.990Z,16.97
2023-02-20T03:48:46.635Z,16.83
2023-02-20T03:51:18.945Z,17.00
2023-02-20T03:53:52.158Z,17.13
2023-02-20T03:56:45.902Z,16.87
2023-02-20T03:59:24.484Z,17.87
2023-02-20T04:02:08.451Z,17.30
2023-02-20T04:04:50.567Z,17.60
2023-02-20T04:07:34.656Z,18.20
2023-02-20T04:10:12.041Z,16.80
2023-02-20T04:12:47.121Z,17.50
2023-02-20T04:15:21.280Z,17.03
2023-02-20T04:18:11.663Z,17.43
2023-02-20T04:20:44.410Z,16.70
2023-02-20T04:23:21.665Z,15.50
2023-02-20T04:26:14.949Z,15.67
2023-02-20T04:28:47.983Z,14.10
2023-02-20T04:31:21.763Z,15.10
2023-02-20T04:33:53.839Z,14.60
2023-02-20T04:36:26.878Z,14.67
2023-02-20T04:38:58.813Z,15.43
2023-02-20T04:41:30.752Z,15.23
2023-02-20T04:44:22.908Z,14.83
2023-02-20T04:46:54.899Z,14.87
2023-02-20T04:49:26.937Z,14.40
2023-02-20T04:51:59.859Z,14.07
2023-02-20T04:54:31.795Z,14.40
2023-02-20T04:57:03.908Z,14.40
2023-02-20T04:59:35.915Z,14.03
2023-02-20T05:02:10.047Z,13.33
2023-02-20T05:04:42.446Z,13.83
2023-02-20T05:07:18.157Z,13.33
2023-02-20T05:09:50.100Z,14.03
2023-02-20T05:12:22.002Z,13.23
2023-02-20T05:14:55.677Z,13.47
2023-02-20T05:17:27.721Z,13.73
2023-02-20T05:19:59.654Z,14.67
2023-02-20T05:22:32.017Z,14.17
2023-02-20T05:25:05.136Z,14.07
2023-02-20T05:27:37.177Z,14.63
2023-02-20T05:30:10.940Z,14.40
2023-02-20T05:32:42.870Z,14.57
2023-02-20T05:35:14.870Z,14.70
2023-02-20T05:37:46.773Z,15.40
2023-02-20T05:40:18.781Z,15.10
2023-02-20T05:42:50.727Z,15.33
2023-02-20T05:45:22.687Z,16.10
2023-02-20T05:47:54.584Z,16.30
2023-02-20T05:50:26.665Z,16.33
2023-02-20T05:52:58.697Z,16.50
2023-02-20T05:55:31.079Z,17.00
2023-02-20T05:58:03.022Z,16.13
2023-02-20T06:00:35.163Z,17.17
2023-02-20T06:03:10.023Z,17.10
2023-02-20T06:05:41.991Z,18.13
2023-02-20T06:08:13.951Z,18.17
2023-02-20T06:10:45.841Z,17.00
2023-02-20T06:13:17.793Z,18.03
2023-02-20T06:15:49.822Z,16.20
2023-02-20T06:18:21.817Z,17.87
2023-02-20T06:20:53.806Z,18.00
2023-02-20T06:23:25.784Z,18.17
2023-02-20T06:25:57.664Z,19.27
2023-02-20T06:28:29.656Z,19.57
2023-02-20T06:31:02.374Z,20.13
2023-02-20T06:33:35.447Z,20.17
2023-02-20T06:36:20.221Z,19.90
2023-02-20T06:38:54.764Z,19.80
2023-02-20T06:41:28.141Z,18.57
2023-02-20T06:44:00.375Z,19.27
2023-02-20T06:46:32.516Z,19.43
2023-02-20T06:49:04.700Z,21.40
2023-02-20T06:51:36.909Z,21.63
2023-02-20T06:54:12.303Z,21.47
2023-02-20T06:56:44.311Z,21.27
2023-02-20T06:59:16.340Z,20.80
2023-02-20T07:01:48.299Z,20.30
2023-02-20T07:04:27.797Z,19.20
2023-02-20T07:07:00.498Z,20.10
2023-02-20T07:09:32.615Z,19.60
2023-02-20T07:12:05.582Z,19.70
2023-02-20T07:14:37.653Z,19.03
2023-02-20T07:17:09.641Z,20.70
2023-02-20T07:19:41.607Z,21.97
2023-02-20T07:22:13.591Z,20.13
2023-02-20T07:24:51.632Z,20.33
2023-02-20T07:27:23.640Z,19.73
2023-02-20T07:29:55.607Z,18.60
2023-02-20T07:32:27.554Z,19.83
2023-02-20T07:35:05.357Z,19.57
2023-02-20T07:37:38.846Z,19.53
2023-02-20T07:40:12.670Z,19.83
2023-02-20T07:42:44.622Z,18.83
2023-02-20T07:45:16.886Z,20.37
2023-02-20T07:47:48.886Z,20.03
2023-02-20T07:50:20.886Z,19.57
2023-02-20T07:52:52.934Z,20.47
2023-02-20T07:55:24.888Z,20.43
2023-02-20T07:57:58.441Z,20.00
2023-02-20T08:00:30.524Z,19.73
2023-02-20T08:03:02.513Z,20.20
2023-02-20T08:05:48.326Z,19.70
2023-02-20T08:08:24.461Z,18.67
2023-02-20T08:11:03.655Z,18.83
2023-02-20T08:13:43.482Z,19.73
2023-02-20T08:16:15.898Z,19.13
2023-02-20T08:18:48.190Z,19.97
2023-02-20T08:21:21.214Z,20.27
2023-02-20T08:23:53.447Z,20.27
2023-02-20T08:26:25.822Z,20.53
2023-02-20T08:28:57.790Z,20.17
2023-02-20T08:31:32.986Z,21.53
2023-02-20T08:34:05.341Z,19.17
2023-02-20T08:36:37.667Z,19.60
2023-02-20T08:39:09.925Z,19.00
2023-02-20T08:41:47.207Z,19.30
2023-02-20T08:44:19.232Z,19.47
2023-02-20T08:46:52.605Z,18.73
2023-02-20T08:49:27.021Z,18.67
2023-02-20T08:51:59.212Z,19.40
2023-02-20T08:54:31.580Z,18.93
2023-02-20T08:57:03.598Z,18.73
2023-02-20T08:59:37.350Z,18.90
2023-02-20T09:02:24.699Z,18.50
2023-02-20T09:04:57.837Z,19.00
2023-02-20T09:07:29.787Z,18.40
2023-02-20T09:10:01.760Z,17.17
2023-02-20T09:12:33.990Z,19.10
2023-02-20T09:15:06.373Z,18.20
2023-02-20T09:17:39.305Z,17.67
2023-02-20T09:20:12.510Z,17.70
2023-02-20T09:22:44.516Z,17.90
2023-02-20T09:25:18.124Z,18.90
2023-02-20T09:27:50.034Z,18.60
2023-02-20T09:30:22.721Z,17.77
2023-02-20T09:32:54.775Z,17.93
2023-02-20T09:35:30.544Z,18.10
2023-02-20T09:38:02.655Z,17.43
2023-02-20T09:40:34.762Z,18.97
2023-02-20T09:43:33.392Z,17.90
2023-02-20T09:46:19.497Z,17.53
2023-02-20T09:49:18.413Z,17.90
2023-02-20T09:51:57.473Z,17.13
2023-02-20T09:54:42.145Z,18.27
2023-02-20T09:57:23.354Z,17.70
2023-02-20T10:00:35.655Z,17.47
2023-02-20T10:03:33.128Z,17.33
2023-02-20T10:06:17.749Z,16.77
2023-02-20T10:08:52.358Z,16.53
2023-02-20T10:11:47.106Z,16.27
2023-02-20T10:14:40.045Z,15.80
2023-02-20T10:17:34.493Z,15.40
2023-02-20T10:20:31.131Z,14.97
2023-02-20T10:23:30.908Z,14.90
2023-02-20T10:26:11.854Z,15.90
2023-02-20T10:28:44.342Z,15.40
2023-02-20T10:32:03.444Z,15.07
2023-02-20T10:34:42.806Z,15.33
2023-02-20T10:37:21.596Z,15.27
2023-02-20T10:40:00.035Z,14.60
2023-02-20T10:42:52.138Z,15.60
2023-02-20T10:45:39.341Z,15.53
2023-02-20T10:48:15.850Z,15.73
2023-02-20T10:51:02.656Z,15.23
2023-02-20T10:53:49.601Z,15.80
2023-02-20T10:56:36.504Z,15.50
2023-02-20T10:59:26.502Z,16.30
2023-02-20T11:02:03.643Z,17.57
2023-02-20T11:04:42.497Z,17.60
2023-02-20T11:07:19.185Z,18.30
2023-02-20T11:09:51.131Z,18.63
2023-02-20T11:12:45.639Z,18.67
2023-02-20T11:15:26.057Z,19.33
2023-02-20T11:17:59.917Z,18.20
2023-02-20T11:20:46.182Z,19.10
2023-02-20T11:23:44.007Z,19.37
2023-02-20T11:26:24.332Z,19.10
2023-02-20T11:29:16.774Z,20.10
2023-02-20T11:31:49.939Z,20.43
2023-02-20T11:34:30.991Z,20.50
2023-02-20T11:37:07.675Z,22.57
2023-02-20T11:39:48.208Z,24.93
2023-02-20T11:42:20.993Z,23.03
2023-02-20T11:45:17.389Z,23.13
2023-02-20T11:48:20.014Z,23.17
2023-02-20T11:50:53.884Z,24.70
2023-02-20T11:53:32.768Z,25.83
2023-02-20T11:56:19.566Z,26.93
2023-02-20T11:58:51.597Z,27.30
2023-02-20T12:01:38.073Z,28.73
2023-02-20T12:04:22.386Z,29.70
2023-02-20T12:06:54.420Z,31.17
2023-02-20T12:09:30.816Z,29.20
2023-02-20T12:12:02.777Z,31.03
2023-02-20T12:14:34.768Z,30.67
2023-02-20T12:17:24.900Z,29.97
2023-02-20T12:20:14.183Z,29.07
2023-02-20T12:23:34.152Z,31.37
2023-02-20T12:26:44.795Z,30.47
2023-02-20T12:29:34.950Z,30.13
2023-02-20T12:32:45.263Z,30.17
2023-02-20T12:35:41.840Z,30.97
2023-02-20T12:38:41.019Z,30.67
2023-02-20T12:41:24.849Z,30.07
2023-02-20T12:44:16.189Z,30.50
2023-02-20T12:47:29.760Z,30.73
2023-02-20T12:50:27.244Z,27.97
2023-02-20T12:53:20.156Z,28.93
2023-02-20T12:56:20.376Z,29.03
2023-02-20T12:59:13.841Z,27.97
2023-02-20T13:01:46.487Z,29.00
2023-02-20T13:04:58.425Z,28.50
2023-02-20T13:07:53.142Z,28.03
2023-02-20T13:10:34.787Z,29.07
2023-02-20T13:13:11.187Z,28.37
2023-02-20T13:16:10.154Z,26.93
2023-02-20T13:19:06.612Z,25.23
2023-02-20T13:21:38.923Z,23.80
2023-02-20T13:24:34.063Z,23.07
2023-02-20T13:27:10.028Z,22.67
2023-02-20T13:30:23.419Z,22.40
2023-02-20T13:33:22.996Z,21.23
2023-02-20T13:35:57.060Z,20.83
2023-02-20T13:38:29.685Z,22.00
2023-02-20T13:41:09.705Z,22.77
2023-02-20T13:43:41.670Z,22.77
2023-02-20T13:46:20.474Z,22.17
2023-02-20T13:48:54.746Z,22.70
2023-02-20T13:51:26.664Z,22.17
2023-02-20T13:54:10.426Z,24.00
2023-02-20T13:56:54.744Z,22.73
2023-02-20T13:59:28.598Z,21.77
2023-02-20T14:02:17.330Z,21.27
2023-02-20T14:05:08.326Z,20.37
2023-02-20T14:07:46.424Z,20.97
2023-02-20T14:10:32.601Z,20.47
2023-02-20T14:13:13.000Z,20.83
2023-02-20T14:15:56.165Z,23.33
2023-02-20T14:18:35.546Z,24.63
2023-02-20T14:21:20.858Z,24.93
2023-02-20T14:23:53.666Z,24.80
2023-02-20T14:26:32.076Z,24.93
2023-02-20T14:29:29.163Z,24.80
2023-02-20T14:32:04.910Z,25.30
2023-02-20T14:35:09.062Z,25.90
2023-02-20T14:38:13.417Z,27.80
2023-02-20T14:40:47.265Z,27.70
2023-02-20T14:43:25.014Z,27.60
2023-02-20T14:46:07.739Z,26.80
2023-02-20T14:48:40.942Z,27.67
2023-02-20T14:51:24.770Z,24.63
2023-02-20T14:54:25.774Z,23.83
2023-02-20T14:56:57.762Z,22.80
2023-02-20T14:59:33.876Z,22.00
2023-02-20T15:02:34.312Z,22.63
2023-02-20T15:05:12.647Z,21.83
2023-02-20T15:07:45.826Z,22.17
2023-02-20T15:10:42.273Z,22.63
2023-02-20T15:13:19.570Z,22.57
2023-02-20T15:16:07.753Z,22.97
2023-02-20T15:18:48.391Z,20.53
2023-02-20T15:21:41.536Z,21.30
2023-02-20T15:24:42.447Z,22.50
2023-02-20T15:27:24.325Z,21.27
2023-02-20T15:30:17.720Z,21.73
2023-02-20T15:32:53.532Z,21.77
2023-02-20T15:35:29.813Z,23.00
2023-02-20T15:38:10.115Z,23.93
2023-02-20T15:40:42.177Z,24.60
2023-02-20T15:43:37.578Z,25.17
2023-02-20T15:46:07.768Z,25.97
2023-02-20T15:48:39.810Z,26.50
2023-02-20T15:51:17.965Z,29.13
2023-02-20T15:53:53.356Z,28.47
2023-02-20T15:56:34.509Z,28.20
2023-02-20T15:59:12.217Z,27.43
2023-02-20T16:01:44.677Z,26.83
2023-02-20T16:04:18.175Z,26.37
2023-02-20T16:06:50.167Z,25.57
2023-02-20T16:09:22.106Z,25.43
2023-02-20T16:11:55.619Z,25.43
2023-02-20T16:14:27.670Z,28.07
2023-02-20T16:16:59.606Z,27.60
2023-02-20T16:19:42.043Z,28.50
2023-02-20T16:22:14.218Z,28.73
2023-02-20T16:24:47.131Z,29.87
2023-02-20T16:27:28.356Z,28.83
2023-02-20T16:30:00.459Z,29.80
2023-02-20T16:32:32.674Z,28.80
2023-02-20T16:35:04.886Z,29.13
2023-02-20T16:37:36.804Z,28.93
2023-02-20T16:40:09.510Z,27.87
2023-02-20T16:42:42.209Z,28.47
2023-02-20T16:45:20.895Z,27.47
2023-02-20T16:47:58.563Z,27.50
2023-02-20T16:50:30.935Z,27.17
2023-02-20T16:53:03.352Z,25.57
2023-02-20T16:55:42.096Z,26.30
2023-02-20T16:58:15.076Z,25.17
2023-02-20T17:00:57.009Z,25.07
2023-02-20T17:03:29.767Z,26.17
2023-02-20T17:06:01.736Z,25.77
2023-02-20T17:08:33.679Z,24.70
2023-02-20T17:11:05.871Z,25.40
2023-02-20T17:13:37.846Z,25.97
2023-02-20T17:16:11.287Z,25.47
2023-02-20T17:18:44.831Z,24.27
2023-02-20T17:21:16.806Z,28.80
2023-02-20T17:23:48.767Z,25.83
2023-02-20T17:26:20.761Z,24.33
2023-02-20T17:28:53.630Z,23.27
2023-02-20T17:31:25.822Z,23.97
2023-02-20T17:33:57.820Z,23.73
2023-02-20T17:36:29.808Z,24.03
2023-02-20T17:39:01.944Z,22.80
2023-02-20T17:41:33.918Z,23.33
2023-02-20T17:44:06.236Z,21.80
2023-02-20T17:46:38.251Z,21.53
2023-02-20T17:49:10.888Z,21.07
2023-02-20T17:51:44.223Z,20.83
2023-02-20T17:54:16.663Z,20.50
2023-02-20T17:56:49.986Z,20.37
2023-02-20T17:59:23.759Z,21.27
2023-02-20T18:01:55.974Z,20.63
2023-02-20T18:04:27.950Z,21.27
2023-02-20T18:07:00.294Z,20.87
2023-02-20T18:09:33.342Z,21.50
2023-02-20T18:12:06.811Z,22.53
2023-02-20T18:14:38.806Z,22.40
2023-02-20T18:17:11.077Z,22.03
2023-02-20T18:19:43.304Z,21.90
2023-02-20T18:22:17.604Z,22.37
2023-02-20T18:24:49.542Z,22.73
2023-02-20T18:27:22.106Z,21.77
2023-02-20T18:29:54.079Z,22.43
2023-02-20T18:32:26.165Z,23.97
2023-02-20T18:34:58.192Z,28.63
2023-02-20T18:37:30.177Z,27.73
2023-02-20T18:40:02.369Z,27.43
2023-02-20T18:42:34.332Z,28.23
2023-02-20T18:45:06.801Z,28.70
2023-02-20T18:47:38.816Z,29.23
2023-02-20T18:50:10.922Z,27.43
2023-02-20T18:52:47.039Z,27.17
2023-02-20T18:55:20.230Z,26.20
2023-02-20T18:57:53.502Z,24.20
2023-02-20T19:00:29.700Z,24.27
2023-02-20T19:03:02.665Z,22.53
2023-02-20T19:05:34.900Z,26.17
2023-02-20T19:08:07.011Z,23.50
2023-02-20T19:10:39.005Z,23.23
2023-02-20T19:13:11.010Z,24.50
2023-02-20T19:15:42.999Z,27.80
2023-02-20T19:18:14.926Z,27.87
2023-02-20T19:20:46.910Z,26.63
2023-02-20T19:23:19.057Z,28.30
2023-02-20T19:25:51.019Z,28.93
2023-02-20T19:28:22.979Z,27.27
2023-02-20T19:30:54.919Z,27.93
2023-02-20T19:33:28.374Z,26.33
2023-02-20T19:36:01.925Z,26.00
2023-02-20T19:38:34.826Z,25.93
2023-02-20T19:41:07.039Z,25.93
2023-02-20T19:43:38.972Z,24.53
2023-02-20T19:46:17.038Z,24.93
2023-02-20T19:48:50.776Z,23.87
2023-02-20T19:51:23.389Z,22.03
2023-02-20T19:53:55.437Z,21.80
2023-02-20T19:56:27.468Z,21.03
2023-02-20T19:58:59.438Z,21.50
2023-02-20T20:01:31.568Z,20.73
2023-02-20T20:04:03.571Z,20.40
2023-02-20T20:06:35.551Z,19.57
2023-02-20T20:09:14.955Z,19.83
2023-02-20T20:11:48.827Z,18.00
2023-02-20T20:14:21.353Z,18.73
2023-02-20T20:16:53.426Z,18.53
2023-02-20T20:19:25.467Z,18.60
2023-02-20T20:21:57.523Z,18.90
2023-02-20T20:24:29.591Z,19.73
2023-02-20T20:27:01.525Z,19.80
2023-02-20T20:29:33.512Z,20.97
2023-02-20T20:32:05.947Z,19.90
2023-02-20T20:34:37.993Z,20.13
2023-02-20T20:37:10.033Z,21.10
2023-02-20T20:39:42.059Z,21.03
2023-02-20T20:42:15.889Z,20.73
2023-02-20T20:44:47.848Z,21.87
2023-02-20T20:47:21.819Z,22.43
2023-02-20T20:49:54.157Z,23.97
2023-02-20T20:52:27.588Z,23.20
2023-02-20T20:55:06.872Z,23.80
2023-02-20T20:57:41.129Z,23.17
2023-02-20T21:00:25.067Z,22.83
2023-02-20T21:02:57.532Z,22.33
2023-02-20T21:05:33.696Z,22.97
2023-02-20T21:08:08.923Z,23.90
2023-02-20T21:10:41.169Z,24.17
2023-02-20T21:13:13.156Z,22.87
2023-02-20T21:15:45.240Z,23.27
2023-02-20T21:18:18.524Z,23.87
2023-02-20T21:20:50.583Z,23.20
2023-02-20T21:23:22.623Z,22.87
2023-02-20T21:25:54.595Z,22.53
2023-02-20T21:28:26.594Z,22.83
2023-02-20T21:30:58.639Z,22.03
2023-02-20T21:33:31.021Z,22.63
2023-02-20T21:36:05.027Z,23.23
2023-02-20T21:38:36.956Z,22.70
2023-02-20T21:41:08.986Z,23.73
2023-02-20T21:43:59.447Z,24.40
2023-02-20T21:46:31.338Z,24.53
2023-02-20T21:49:03.356Z,25.93
2023-02-20T21:51:35.299Z,25.67
2023-02-20T21:54:07.448Z,26.93
2023-02-20T21:56:39.465Z,24.97
2023-02-20T21:59:11.646Z,25.17
2023-02-20T22:01:43.943Z,24.43
2023-02-20T22:04:16.481Z,25.00
2023-02-20T22:07:08.747Z,25.43
2023-02-20T22:09:59.004Z,23.53
2023-02-20T22:12:50.492Z,26.40
2023-02-20T22:15:41.276Z,25.60
2023-02-20T22:18:31.833Z,25.13
2023-02-20T22:21:22.703Z,26.77
2023-02-20T22:24:13.569Z,29.33
2023-02-20T22:27:03.842Z,27.90
2023-02-20T22:29:55.935Z,28.60
2023-02-20T22:32:46.488Z,28.53
2023-02-20T22:35:37.413Z,26.93
2023-02-20T22:38:27.661Z,27.67
2023-02-20T22:41:18.166Z,27.03
2023-02-20T22:44:08.744Z,27.77
2023-02-20T22:46:59.390Z,27.23
2023-02-20T22:49:49.747Z,27.33
2023-02-20T22:52:40.381Z,28.07
2023-02-20T22:55:31.490Z,26.83
2023-02-20T22:58:22.180Z,28.17
2023-02-20T23:01:13.023Z,28.57
2023-02-20T23:04:03.777Z,29.23
2023-02-20T23:06:54.536Z,28.73
2023-02-20T23:09:45.641Z,28.50
2023-02-20T23:12:36.183Z,28.53
2023-02-20T23:15:27.508Z,28.83
2023-02-20T23:18:17.867Z,27.47
2023-02-20T23:21:08.428Z,28.33
2023-02-20T23:23:59.176Z,29.97
2023-02-20T23:26:49.620Z,29.27
2023-02-20T23:29:40.253Z,28.20
2023-02-20T23:32:30.655Z,29.63
2023-02-20T23:35:21.063Z,30.13
2023-02-20T23:38:11.776Z,30.37
2023-02-20T23:41:02.425Z,29.80
2023-02-20T23:43:53.219Z,29.77
2023-02-20T23:46:43.799Z,31.00
2023-02-20T23:49:34.486Z,30.63
2023-02-20T23:52:25.017Z,30.67
2023-02-20T23:55:15.417Z,29.50
2023-02-20T23:58:05.715Z,31.20
